createdAt,value
2022-08-10T00:00:55.784Z,101953.03
2022-08-10T00:03:22.249Z,101957.59
2022-08-10T00:05:52.613Z,101959.75
2022-08-10T00:08:23.772Z,101960.84
2022-08-10T00:10:54.206Z,101962.84
2022-08-10T00:13:20.832Z,101966.78
2022-08-10T00:15:53.905Z,101968.81
2022-08-10T00:18:31.542Z,101966.34
2022-08-10T00:21:04.523Z,101962.34
2022-08-10T00:23:30.958Z,101962.44
2022-08-10T00:25:57.466Z,101966.09
2022-08-10T00:28:23.912Z,101969.91
2022-08-10T00:30:50.395Z,101959.56
2022-08-10T00:33:16.956Z,101961.53
2022-08-10T00:35:43.437Z,101959.94
2022-08-10T00:38:10.198Z,101958.34
2022-08-10T00:40:37.668Z,101955.88
2022-08-10T00:43:07.864Z,101954.16
2022-08-10T00:45:35.175Z,101944.56
2022-08-10T00:48:02.045Z,101948.22
2022-08-10T00:50:28.735Z,101940.50
2022-08-10T00:52:55.198Z,101929.97
2022-08-10T00:55:21.889Z,101930.78
2022-08-10T00:57:55.314Z,101927.41
2022-08-10T01:00:23.123Z,101923.78
2022-08-10T01:02:49.745Z,101923.66
2022-08-10T01:05:16.297Z,101913.13
2022-08-10T01:08:08.323Z,101907.88
2022-08-10T01:10:45.030Z,101915.66
2022-08-10T01:13:20.615Z,101915.63
2022-08-10T01:16:04.382Z,101910.22
2022-08-10T01:18:43.101Z,101912.16
2022-08-10T01:21:38.562Z,101910.63
2022-08-10T01:24:42.719Z,101908.13
2022-08-10T01:27:34.197Z,101916.09
2022-08-10T01:30:04.477Z,101915.28
2022-08-10T01:33:00.124Z,101912.81
2022-08-10T01:35:54.627Z,101911.41
2022-08-10T01:38:27.685Z,101900.06
2022-08-10T01:40:57.040Z,101905.38
2022-08-10T01:43:23.627Z,101898.34
2022-08-10T01:45:52.701Z,101903.63
2022-08-10T01:48:31.502Z,101903.63
2022-08-10T01:51:18.033Z,101908.16
2022-08-10T01:53:53.517Z,101908.22
2022-08-10T01:56:21.224Z,101899.53
2022-08-10T01:58:51.316Z,101903.16
2022-08-10T02:01:19.762Z,101909.41
2022-08-10T02:04:05.019Z,101900.88
2022-08-10T02:06:33.937Z,101909.78
2022-08-10T02:09:06.488Z,101894.03
2022-08-10T02:11:57.538Z,101895.75
2022-08-10T02:14:19.709Z,101903.56
2022-08-10T02:16:47.761Z,101904.56
2022-08-10T02:19:16.101Z,101903.75
2022-08-10T02:22:46.092Z,101906.41
2022-08-10T02:24:30.747Z,101908.22
2022-08-10T02:26:59.928Z,101911.91
2022-08-10T02:29:26.461Z,101908.41
2022-08-10T02:31:52.901Z,101900.88
2022-08-10T02:34:20.775Z,101900.75
2022-08-10T02:36:49.441Z,101905.13
2022-08-10T02:39:16.482Z,101898.19
2022-08-10T02:45:02.316Z,101905.28
2022-08-10T02:45:24.220Z,101907.19
2022-08-10T02:47:51.171Z,101913.41
2022-08-10T02:50:27.649Z,101915.22
2022-08-10T02:53:01.879Z,101900.34
2022-08-10T02:55:32.790Z,101909.19
2022-08-10T02:58:17.358Z,101914.75
2022-08-10T03:00:48.356Z,101924.41
2022-08-10T03:03:21.437Z,101919.31
2022-08-10T03:05:49.889Z,101915.03
2022-08-10T03:08:18.771Z,101919.59
2022-08-10T03:10:45.194Z,101916.09
2022-08-10T03:13:11.708Z,101916.13
2022-08-10T03:15:38.354Z,101913.53
2022-08-10T03:18:05.545Z,101909.97
2022-08-10T03:20:39.768Z,101916.97
2022-08-10T03:23:15.371Z,101914.47
2022-08-10T03:25:53.089Z,101910.22
2022-08-10T03:28:28.245Z,101907.72
2022-08-10T03:30:54.969Z,101901.63
2022-08-10T03:33:22.233Z,101907.00
2022-08-10T03:36:42.531Z,101899.28
2022-08-10T03:38:36.020Z,101894.06
2022-08-10T03:41:05.306Z,101893.28
2022-08-10T03:43:31.834Z,101889.97
2022-08-10T03:45:59.713Z,101884.75
2022-08-10T03:48:45.078Z,101886.47
2022-08-10T03:51:13.648Z,101891.88
2022-08-10T03:54:03.752Z,101891.94
2022-08-10T03:56:31.565Z,101899.91
2022-08-10T03:58:59.179Z,101895.50
2022-08-10T04:02:46.141Z,101898.13
2022-08-10T04:04:14.700Z,101879.81
2022-08-10T04:06:44.607Z,101888.63
2022-08-10T04:09:11.055Z,101879.81
2022-08-10T04:11:37.784Z,101876.41
2022-08-10T04:14:07.275Z,101891.38
2022-08-10T04:16:53.844Z,101895.78
2022-08-10T04:19:20.357Z,101895.84
2022-08-10T04:21:50.089Z,101893.28
2022-08-10T04:24:27.137Z,101903.03
2022-08-10T04:26:59.677Z,101890.72
2022-08-10T04:29:26.177Z,101890.72
2022-08-10T04:31:52.764Z,101897.75
2022-08-10T04:34:19.398Z,101903.09
2022-08-10T04:36:45.845Z,101902.22
2022-08-10T04:39:13.578Z,101893.38
2022-08-10T04:41:46.072Z,101886.34
2022-08-10T04:44:13.861Z,101888.97
2022-08-10T04:46:56.335Z,101899.47
2022-08-10T04:49:54.168Z,101901.22
2022-08-10T04:52:12.951Z,101898.56
2022-08-10T04:54:39.440Z,101908.22
2022-08-10T04:57:06.145Z,101912.66
2022-08-10T04:59:32.620Z,101909.09
2022-08-10T05:02:30.402Z,101906.44
2022-08-10T05:04:45.486Z,101906.38
2022-08-10T05:07:16.973Z,101910.59
2022-08-10T05:10:02.866Z,101907.72
2022-08-10T05:12:34.631Z,101916.41
2022-08-10T05:15:05.320Z,101911.06
2022-08-10T05:17:31.735Z,101917.97
2022-08-10T05:20:03.646Z,101919.63
2022-08-10T05:22:34.478Z,101915.94
2022-08-10T05:25:01.133Z,101922.00
2022-08-10T05:27:27.657Z,101920.97
2022-08-10T05:30:01.791Z,101916.38
2022-08-10T05:32:30.757Z,101920.66
2022-08-10T05:34:57.618Z,101915.22
2022-08-10T05:38:10.859Z,101920.41
2022-08-10T05:40:10.833Z,101918.38
2022-08-10T05:42:37.482Z,101911.03
2022-08-10T05:45:04.410Z,101913.56
2022-08-10T05:48:55.671Z,101916.94
2022-08-10T05:50:17.696Z,101915.06
2022-08-10T05:52:44.223Z,101910.53
2022-08-10T05:55:11.516Z,101911.28
2022-08-10T05:57:38.036Z,101906.59
2022-08-10T06:00:34.515Z,101920.47
2022-08-10T06:02:59.191Z,101930.78
2022-08-10T06:05:26.560Z,101933.97
2022-08-10T06:08:09.438Z,101936.31
2022-08-10T06:12:21.663Z,101933.50
2022-08-10T06:13:59.833Z,101940.25
2022-08-10T06:16:29.785Z,101925.78
2022-08-10T06:18:56.380Z,101936.97
2022-08-10T06:21:22.934Z,101934.88
2022-08-10T06:23:49.605Z,101952.38
2022-08-10T06:26:20.976Z,101947.66
2022-08-10T06:29:02.777Z,101944.78
2022-08-10T06:31:47.906Z,101956.03
2022-08-10T06:34:20.489Z,101962.56
2022-08-10T06:36:47.126Z,101967.41
2022-08-10T06:39:32.546Z,101961.91
2022-08-10T06:42:14.809Z,101967.00
2022-08-10T06:45:06.677Z,101960.66
2022-08-10T06:47:43.924Z,101963.09
2022-08-10T06:50:44.515Z,101950.50
2022-08-10T06:53:12.843Z,101955.50
2022-08-10T06:55:55.117Z,101952.03
2022-08-10T06:58:26.979Z,101956.53
2022-08-10T07:00:53.869Z,101960.53
2022-08-10T07:03:20.446Z,101963.97
2022-08-10T07:05:51.171Z,101961.53
2022-08-10T07:08:18.451Z,101966.41
2022-08-10T07:10:46.641Z,101964.69
2022-08-10T07:13:15.557Z,101968.03
2022-08-10T07:16:02.023Z,101960.00
2022-08-10T07:18:28.469Z,101968.03
2022-08-10T07:20:56.294Z,101970.44
2022-08-10T07:23:57.604Z,101975.00
2022-08-10T07:26:09.924Z,101982.34
2022-08-10T07:28:36.477Z,101980.31
2022-08-10T07:31:02.980Z,101985.47
2022-08-10T07:33:30.245Z,101986.66
2022-08-10T07:35:56.745Z,101982.97
2022-08-10T07:38:24.542Z,101984.34
2022-08-10T07:40:51.796Z,101977.97
2022-08-10T07:43:19.060Z,101976.53
2022-08-10T07:45:45.535Z,101973.88
2022-08-10T07:48:15.205Z,101973.00
2022-08-10T07:50:41.818Z,101975.31
2022-08-10T07:53:10.390Z,101977.81
2022-08-10T07:56:04.252Z,101977.56
2022-08-10T07:58:25.786Z,101978.88
2022-08-10T08:00:52.480Z,101984.81
2022-08-10T08:03:21.142Z,101973.75
2022-08-10T08:05:58.267Z,101974.81
2022-08-10T08:08:29.271Z,101964.13
2022-08-10T08:10:58.033Z,101969.94
2022-08-10T08:13:24.534Z,101972.09
2022-08-10T08:16:17.256Z,101965.69
2022-08-10T08:18:37.749Z,101966.19
2022-08-10T08:21:07.642Z,101966.69
2022-08-10T08:24:05.580Z,101965.75
2022-08-10T08:26:37.659Z,101969.72
2022-08-10T08:29:04.954Z,101965.50
2022-08-10T08:31:31.514Z,101959.25
2022-08-10T08:33:57.962Z,101966.34
2022-08-10T08:36:24.421Z,101965.94
2022-08-10T08:38:50.890Z,101967.84
2022-08-10T08:41:47.869Z,101964.41
2022-08-10T08:44:51.806Z,101962.97
2022-08-10T08:48:05.253Z,101963.78
2022-08-10T08:50:40.017Z,101961.25
2022-08-10T08:54:01.583Z,101958.09
2022-08-10T08:56:21.361Z,101958.19
2022-08-10T08:58:50.696Z,101953.91
2022-08-10T09:01:42.124Z,101947.09
2022-08-10T09:04:30.829Z,101938.63
2022-08-10T09:07:07.183Z,101930.75
2022-08-10T09:10:01.419Z,101933.34
2022-08-10T09:12:51.610Z,101928.44
2022-08-10T09:15:40.931Z,101927.63
2022-08-10T09:18:18.487Z,101931.09
2022-08-10T09:20:51.479Z,101930.56
2022-08-10T09:24:05.267Z,101927.28
2022-08-10T09:26:58.956Z,101923.81
2022-08-10T09:29:26.822Z,101919.91
2022-08-10T09:36:17.572Z,101923.25
2022-08-10T09:36:23.156Z,101922.03
2022-08-10T09:38:34.074Z,101928.63
2022-08-10T09:41:13.003Z,101920.34
2022-08-10T09:43:55.033Z,101916.78
2022-08-10T09:46:34.343Z,101916.38
2022-08-10T09:49:22.378Z,101909.69
2022-08-10T09:52:01.884Z,101907.97
2022-08-10T09:54:56.109Z,101903.56
2022-08-10T09:57:44.401Z,101906.06
2022-08-10T10:00:15.474Z,101905.69
2022-08-10T10:02:52.608Z,101905.19
2022-08-10T10:05:50.374Z,101896.28
2022-08-10T10:08:30.302Z,101903.38
2022-08-10T10:11:19.656Z,101895.31
2022-08-10T10:14:08.154Z,101889.94
2022-08-10T10:17:10.863Z,101895.63
2022-08-10T10:20:05.168Z,101888.09
2022-08-10T10:23:01.726Z,101884.16
2022-08-10T10:25:50.976Z,101884.19
2022-08-10T10:29:37.621Z,101883.91
2022-08-10T10:32:08.791Z,101877.97
2022-08-10T10:34:53.821Z,101875.63
2022-08-10T10:37:20.787Z,101866.59
2022-08-10T10:40:07.952Z,101872.13
2022-08-10T10:43:19.538Z,101868.53
2022-08-10T10:45:57.853Z,101867.56
2022-08-10T10:49:08.264Z,101868.81
2022-08-10T10:51:41.762Z,101865.97
2022-08-10T10:54:10.400Z,101860.53
2022-08-10T10:56:57.464Z,101856.66
2022-08-10T10:59:55.896Z,101853.09
2022-08-10T11:02:42.296Z,101853.56
2022-08-10T11:05:17.701Z,101851.41
2022-08-10T11:07:56.828Z,101851.97
2022-08-10T11:10:47.304Z,101837.47
2022-08-10T11:14:25.831Z,101837.69
2022-08-10T11:16:43.409Z,101845.53
2022-08-10T11:19:19.698Z,101836.56
2022-08-10T11:22:07.973Z,101839.28
2022-08-10T11:25:06.816Z,101844.03
2022-08-10T11:27:50.974Z,101835.06
2022-08-10T11:30:32.234Z,101840.72
2022-08-10T11:33:30.824Z,101839.56
2022-08-10T11:36:11.586Z,101837.94
2022-08-10T11:39:11.115Z,101832.28
2022-08-10T11:42:09.791Z,101840.94
2022-08-10T11:44:43.314Z,101843.00
2022-08-10T11:47:20.627Z,101836.28
2022-08-10T11:50:01.852Z,101824.91
2022-08-10T11:52:39.784Z,101821.56
2022-08-10T11:55:13.619Z,101819.03
2022-08-10T11:57:53.940Z,101822.47
2022-08-10T12:00:21.947Z,101827.84
2022-08-10T12:02:50.386Z,101811.28
2022-08-10T12:05:53.896Z,101810.13
2022-08-10T12:10:06.815Z,101805.28
2022-08-10T12:11:10.046Z,101806.31
2022-08-10T12:13:40.178Z,101798.03
2022-08-10T12:16:06.804Z,101806.22
2022-08-10T12:18:48.176Z,101798.13
2022-08-10T12:21:23.634Z,101801.91
2022-08-10T12:24:08.808Z,101799.31
2022-08-10T12:26:41.770Z,101791.84
2022-08-10T12:29:15.158Z,101791.84
2022-08-10T12:32:07.773Z,101785.75
2022-08-10T12:35:12.654Z,101783.66
2022-08-10T12:38:22.162Z,101788.56
2022-08-10T12:40:51.589Z,101779.22
2022-08-10T12:44:07.737Z,101776.63
2022-08-10T12:47:01.340Z,101766.78
2022-08-10T12:49:40.748Z,101764.66
2022-08-10T12:52:32.943Z,101773.78
2022-08-10T12:54:59.784Z,101763.69
2022-08-10T12:57:26.308Z,101758.81
2022-08-10T12:59:57.525Z,101762.34
2022-08-10T13:02:31.369Z,101762.31
2022-08-10T13:04:59.023Z,101755.69
2022-08-10T13:08:03.635Z,101739.16
2022-08-10T13:10:19.739Z,101736.53
2022-08-10T13:12:49.228Z,101735.25
2022-08-10T13:15:45.648Z,101735.19
2022-08-10T13:18:04.991Z,101733.31
2022-08-10T13:20:35.003Z,101728.75
2022-08-10T13:23:02.499Z,101736.56
2022-08-10T13:25:31.558Z,101719.41
2022-08-10T13:28:34.727Z,101724.75
2022-08-10T13:30:50.804Z,101713.50
2022-08-10T13:33:17.788Z,101714.13
2022-08-10T13:36:04.378Z,101707.97
2022-08-10T13:38:31.964Z,101705.09
2022-08-10T13:40:58.395Z,101712.38
2022-08-10T13:43:24.880Z,101700.03
2022-08-10T13:45:51.330Z,101705.59
2022-08-10T13:48:20.116Z,101702.56
2022-08-10T13:50:46.660Z,101704.00
2022-08-10T13:53:15.481Z,101686.63
2022-08-10T13:55:54.589Z,101682.34
2022-08-10T13:58:28.134Z,101687.63
2022-08-10T14:00:56.018Z,101678.09
2022-08-10T14:03:22.530Z,101686.97
2022-08-10T14:05:53.941Z,101688.66
2022-08-10T14:08:25.802Z,101684.13
2022-08-10T14:11:09.139Z,101690.44
2022-08-10T14:13:37.837Z,101680.59
2022-08-10T14:16:06.003Z,101674.41
2022-08-10T14:18:34.869Z,101663.94
2022-08-10T14:21:01.312Z,101671.13
2022-08-10T14:23:32.293Z,101663.81
2022-08-10T14:26:08.519Z,101665.47
2022-08-10T14:28:41.887Z,101671.59
2022-08-10T14:31:21.137Z,101672.91
2022-08-10T14:33:53.345Z,101658.81
2022-08-10T14:36:26.108Z,101659.44
2022-08-10T14:38:53.094Z,101660.84
2022-08-10T14:42:03.792Z,101656.94
2022-08-10T14:44:10.730Z,101647.06
2022-08-10T14:46:42.048Z,101644.72
2022-08-10T14:49:26.254Z,101646.56
2022-08-10T14:51:53.275Z,101642.09
2022-08-10T14:54:28.234Z,101642.34
2022-08-10T14:56:55.280Z,101643.63
2022-08-10T14:59:21.844Z,101636.25
2022-08-10T15:02:01.445Z,101631.63
2022-08-10T15:04:35.399Z,101635.91
2022-08-10T15:07:12.920Z,101635.22
2022-08-10T15:10:00.406Z,101631.56
2022-08-10T15:12:36.674Z,101636.31
2022-08-10T15:15:16.458Z,101628.78
2022-08-10T15:17:50.734Z,101628.84
2022-08-10T15:20:21.561Z,101634.97
2022-08-10T15:22:50.124Z,101630.44
2022-08-10T15:25:24.453Z,101621.66
2022-08-10T15:27:57.213Z,101630.34
2022-08-10T15:30:30.010Z,101623.47
2022-08-10T15:33:16.190Z,101617.44
2022-08-10T15:36:06.543Z,101612.72
2022-08-10T15:38:35.393Z,101610.50
2022-08-10T15:41:01.961Z,101606.41
2022-08-10T15:43:36.807Z,101610.03
2022-08-10T15:46:16.010Z,101614.38
2022-08-10T15:49:03.094Z,101605.22
2022-08-10T15:51:53.934Z,101601.50
2022-08-10T15:54:33.162Z,101607.06
2022-08-10T15:57:02.998Z,101611.00
2022-08-10T15:59:32.800Z,101612.22
2022-08-10T16:02:16.145Z,101610.38
2022-08-10T16:05:06.705Z,101605.97
2022-08-10T16:07:38.948Z,101605.16
2022-08-10T16:10:26.084Z,101613.03
2022-08-10T16:12:59.910Z,101600.53
2022-08-10T16:15:27.810Z,101610.13
2022-08-10T16:18:01.573Z,101599.59
2022-08-10T16:20:31.536Z,101595.75
2022-08-10T16:23:00.649Z,101602.38
2022-08-10T16:25:47.778Z,101602.88
2022-08-10T16:28:23.126Z,101597.31
2022-08-10T16:30:53.033Z,101600.81
2022-08-10T16:33:23.158Z,101595.81
2022-08-10T16:35:51.537Z,101592.97
2022-08-10T16:38:17.990Z,101588.75
2022-08-10T16:40:44.547Z,101594.47
2022-08-10T16:43:11.271Z,101591.03
2022-08-10T16:45:43.435Z,101587.59
2022-08-10T16:48:10.068Z,101588.97
2022-08-10T16:50:45.276Z,101581.94
2022-08-10T16:53:13.809Z,101599.91
2022-08-10T16:55:49.489Z,101589.97
2022-08-10T16:58:20.339Z,101586.13
2022-08-10T17:00:46.887Z,101593.28
2022-08-10T17:03:22.455Z,101582.81
2022-08-10T17:06:01.696Z,101583.78
2022-08-10T17:08:50.336Z,101582.81
2022-08-10T17:11:17.574Z,101588.31
2022-08-10T17:13:44.098Z,101590.22
2022-08-10T17:16:10.570Z,101584.53
2022-08-10T17:18:38.463Z,101590.25
2022-08-10T17:21:20.089Z,101585.25
2022-08-10T17:23:51.453Z,101585.53
2022-08-10T17:26:35.439Z,101584.81
2022-08-10T17:29:08.593Z,101580.13
2022-08-10T17:31:54.945Z,101590.75
2022-08-10T17:34:24.794Z,101583.72
2022-08-10T17:36:58.017Z,101587.00
2022-08-10T17:39:29.312Z,101586.25
2022-08-10T17:41:58.667Z,101590.88
2022-08-10T17:44:25.135Z,101581.03
2022-08-10T17:46:51.615Z,101583.31
2022-08-10T17:49:18.226Z,101576.94
2022-08-10T17:51:50.586Z,101574.69
2022-08-10T17:54:29.641Z,101581.41
2022-08-10T17:56:58.455Z,101575.81
2022-08-10T17:59:24.971Z,101580.94
2022-08-10T18:02:01.659Z,101583.16
2022-08-10T18:04:34.148Z,101574.47
2022-08-10T18:07:07.128Z,101583.28
2022-08-10T18:09:35.941Z,101583.66
2022-08-10T18:12:17.576Z,101580.66
2022-08-10T18:14:46.629Z,101588.25
2022-08-10T18:17:14.554Z,101586.22
2022-08-10T18:19:43.626Z,101581.94
2022-08-10T18:22:11.791Z,101585.97
2022-08-10T18:24:38.354Z,101576.53
2022-08-10T18:27:05.091Z,101585.94
2022-08-10T18:29:31.541Z,101586.91
2022-08-10T18:32:02.017Z,101586.50
2022-08-10T18:34:32.241Z,101581.66
2022-08-10T18:36:58.738Z,101581.81
2022-08-10T18:39:27.886Z,101595.81
2022-08-10T18:42:00.452Z,101581.88
2022-08-10T18:44:35.069Z,101577.19
2022-08-10T18:47:03.839Z,101582.53
2022-08-10T18:49:32.875Z,101585.91
2022-08-10T18:52:02.474Z,101587.78
2022-08-10T18:54:50.060Z,101587.72
2022-08-10T18:57:28.951Z,101585.19
2022-08-10T19:00:14.695Z,101580.59
2022-08-10T19:02:47.958Z,101588.13
2022-08-10T19:05:30.879Z,101593.84
2022-08-10T19:08:30.380Z,101604.16
2022-08-10T19:11:23.916Z,101607.59
2022-08-10T19:14:08.551Z,101611.22
2022-08-10T19:16:50.483Z,101608.44
2022-08-10T19:19:33.268Z,101609.03
2022-08-10T19:22:06.615Z,101613.50
2022-08-10T19:24:33.053Z,101624.88
2022-08-10T19:27:11.720Z,101619.03
2022-08-10T19:30:09.255Z,101619.00
2022-08-10T19:32:37.846Z,101621.34
2022-08-10T19:35:08.894Z,101616.38
2022-08-10T19:38:01.103Z,101616.56
2022-08-10T19:40:44.185Z,101601.25
2022-08-10T19:44:00.709Z,101601.84
2022-08-10T19:46:41.204Z,101606.19
2022-08-10T19:49:39.692Z,101603.44
2022-08-10T19:52:19.604Z,101611.50
2022-08-10T19:55:15.479Z,101612.75
2022-08-10T19:57:44.557Z,101610.72
2022-08-10T20:00:19.269Z,101614.75
2022-08-10T20:03:10.599Z,101615.13
2022-08-10T20:06:13.249Z,101622.56
2022-08-10T20:09:06.436Z,101615.09
2022-08-10T20:11:45.586Z,101628.75
2022-08-10T20:14:31.274Z,101632.66
2022-08-10T20:17:04.040Z,101638.41
2022-08-10T20:19:52.858Z,101638.06
2022-08-10T20:22:29.580Z,101642.75
2022-08-10T20:25:02.962Z,101639.75
2022-08-10T20:27:44.378Z,101636.63
2022-08-10T20:30:20.671Z,101636.00
2022-08-10T20:32:50.823Z,101639.19
2022-08-10T20:35:23.351Z,101635.06
2022-08-10T20:38:03.594Z,101639.91
2022-08-10T20:40:46.761Z,101642.00
2022-08-10T20:43:19.731Z,101640.25
2022-08-10T20:46:10.991Z,101639.78
2022-08-10T20:48:54.594Z,101634.09
2022-08-10T20:51:22.866Z,101638.41
2022-08-10T20:53:55.703Z,101635.47
2022-08-10T20:56:28.262Z,101644.00
2022-08-10T20:59:16.476Z,101643.38
2022-08-10T21:02:27.004Z,101642.13
2022-08-10T21:05:05.147Z,101637.13
2022-08-10T21:10:42.694Z,101632.47
2022-08-10T21:13:12.056Z,101633.56
2022-08-10T21:16:07.696Z,101623.16
2022-08-10T21:18:45.823Z,101630.47
2022-08-10T21:21:18.222Z,101637.25
2022-08-10T21:24:06.295Z,101631.47
2022-08-10T21:26:45.075Z,101632.41
2022-08-10T21:29:37.937Z,101630.84
2022-08-10T21:32:12.158Z,101632.09
2022-08-10T21:35:15.537Z,101636.94
2022-08-10T21:41:17.483Z,101637.59
2022-08-10T21:44:18.024Z,101645.13
2022-08-10T21:47:10.131Z,101640.25
2022-08-10T21:50:07.633Z,101642.13
2022-08-10T21:53:00.739Z,101644.00
2022-08-10T21:56:09.589Z,101643.13
2022-08-10T21:59:23.188Z,101634.44
2022-08-10T22:02:11.856Z,101628.56
2022-08-10T22:04:57.563Z,101637.91
2022-08-10T22:07:42.232Z,101636.63
2022-08-10T22:10:28.612Z,101631.44
2022-08-10T22:13:13.560Z,101635.19
2022-08-10T22:16:11.051Z,101634.56
2022-08-10T22:19:01.388Z,101624.25
2022-08-10T22:21:48.105Z,101629.16
2022-08-10T22:24:41.836Z,101629.34
2022-08-10T22:27:47.458Z,101639.09
2022-08-10T22:30:34.921Z,101627.75
2022-08-10T22:31:27.381Z,101638.13
2022-08-10T22:33:59.238Z,101632.72
2022-08-10T22:36:56.468Z,101634.72
2022-08-10T22:40:11.926Z,101637.69
2022-08-10T22:43:10.714Z,101623.09
2022-08-10T22:45:57.350Z,101628.75
2022-08-10T22:48:42.499Z,101624.44
2022-08-10T22:51:15.853Z,101622.97
2022-08-10T22:54:03.724Z,101623.16
2022-08-10T22:56:48.864Z,101625.97
2022-08-10T22:59:26.413Z,101625.28
2022-08-10T23:02:08.386Z,101625.47
2022-08-10T23:04:38.371Z,101629.19
2022-08-10T23:07:17.222Z,101632.81
2022-08-10T23:09:44.780Z,101626.09
2022-08-10T23:12:16.919Z,101634.22
2022-08-10T23:14:59.260Z,101627.31
2022-08-10T23:18:00.592Z,101625.84
2022-08-10T23:20:29.008Z,101623.34
2022-08-10T23:22:59.390Z,101621.88
2022-08-10T23:25:28.313Z,101628.19
2022-08-10T23:28:03.133Z,101625.59
2022-08-10T23:30:38.968Z,101617.97
2022-08-10T23:33:11.647Z,101622.56
2022-08-10T23:36:29.874Z,101622.56
2022-08-10T23:38:36.271Z,101628.00
2022-08-10T23:41:03.357Z,101625.56
2022-08-10T23:44:00.844Z,101630.13
2022-08-10T23:46:23.418Z,101624.25
2022-08-10T23:48:49.886Z,101617.38
2022-08-10T23:51:17.229Z,101630.66
2022-08-10T23:53:44.908Z,101623.63
2022-08-10T23:56:16.548Z,101623.03
2022-08-10T23:58:55.846Z,101619.63
